Time;durP1;ratioP1;P1;durP2;ratioP2;P2;SDS_P1;SDS_P2;PMS_P1;PMS_P2;Temp;Humidity;BMP_temperature;BMP_pressure;BME280_temperature;BME280_humidity;BME280_pressure;Samples;Min_cycle;Max_cycle;Signal;HPM_P1;HPM_P2
2022/02/02 00:02:08;;;;;;;62.22;51.72;;;;;;;;;;5047996;28;20025;-78
2022/02/02 00:04:36;;;;;;;77.95;52.17;;;;;;;;;;5021991;28;20046;-78
2022/02/02 00:09:52;;;;;;;98.10;55.42;;;;;;;;;;4993624;28;20026;-78
2022/02/02 00:12:23;;;;;;;87.70;54.97;;;;;;;;;;4997398;28;20101;-79
2022/02/02 00:14:59;;;;;;;72.93;51.53;;;;;;;;;;4991971;28;20109;-79
2022/02/02 00:17:42;;;;;;;91.00;55.78;;;;;;;;;;5017381;28;20031;-78
2022/02/02 00:22:38;;;;;;;94.35;56.10;;;;;;;;;;4994495;28;20069;-79
2022/02/02 00:25:11;;;;;;;90.28;56.10;;;;;;;;;;4998258;28;20038;-80
2022/02/02 00:27:38;;;;;;;82.65;56.05;;;;;;;;;;4990978;28;20022;-78
2022/02/02 00:30:05;;;;;;;76.25;52.67;;;;;;;;;;4987474;28;20077;-79
2022/02/02 00:32:55;;;;;;;92.50;54.35;;;;;;;;;;4995381;28;20495;-78
2022/02/02 00:35:25;;;;;;;80.53;55.00;;;;;;;;;;4995453;28;20109;-79
2022/02/02 00:37:50;;;;;;;73.60;51.88;;;;;;;;;;4992785;28;20105;-79
2022/02/02 00:40:15;;;;;;;80.63;51.77;;;;;;;;;;4991134;28;20053;-78
2022/02/02 00:42:44;;;;;;;83.53;55.13;;;;;;;;;;4996657;28;20042;-79
2022/02/02 00:45:09;;;;;;;90.85;52.90;;;;;;;;;;4993986;28;20018;-78
2022/02/02 00:47:38;;;;;;;76.03;52.70;;;;;;;;;;4994689;28;20077;-78
2022/02/02 00:50:03;;;;;;;80.63;52.17;;;;;;;;;;4991892;28;20017;-79
2022/02/02 00:52:29;;;;;;;65.00;51.23;;;;;;;;;;4998306;28;20701;-79
2022/02/02 00:54:54;;;;;;;72.83;50.27;;;;;;;;;;4999458;28;20019;-79
2022/02/02 00:57:19;;;;;;;79.93;53.43;;;;;;;;;;4990167;28;20015;-79
2022/02/02 00:59:44;;;;;;;60.17;50.67;;;;;;;;;;4999356;28;20041;-79
2022/02/02 01:02:12;;;;;;;68.00;50.87;;;;;;;;;;5008691;28;20017;-80
2022/02/02 01:04:37;;;;;;;83.20;54.92;;;;;;;;;;5000077;28;20018;-80
2022/02/02 01:07:23;;;;;;;65.73;50.37;;;;;;;;;;4995205;28;20037;-80
2022/02/02 01:10:05;;;;;;;67.70;50.15;;;;;;;;;;4980134;28;20024;-80
2022/02/02 01:12:54;;;;;;;63.47;50.22;;;;;;;;;;5000471;28;20014;-80
2022/02/02 01:20:54;;;;;;;76.10;52.78;;;;;;;;;;4989981;28;20018;-79
2022/02/02 01:28:33;;;;;;;88.05;54.97;;;;;;;;;;4995208;28;20081;-80
2022/02/02 01:31:02;;;;;;;70.17;52.13;;;;;;;;;;4990218;28;20015;-79
2022/02/02 01:33:28;;;;;;;74.45;51.55;;;;;;;;;;4996258;28;20042;-80
2022/02/02 01:35:53;;;;;;;68.72;51.95;;;;;;;;;;4993182;28;20018;-79
2022/02/02 01:38:19;;;;;;;79.13;52.53;;;;;;;;;;4994955;28;20078;-78
2022/02/02 01:40:50;;;;;;;77.75;53.25;;;;;;;;;;4998393;28;20023;-78
2022/02/02 01:43:23;;;;;;;79.28;52.88;;;;;;;;;;4992379;28;20022;-78
2022/02/02 01:45:56;;;;;;;73.43;54.08;;;;;;;;;;4990727;28;20026;-78
2022/02/02 01:48:32;;;;;;;72.40;52.42;;;;;;;;;;4993169;28;20018;-78
2022/02/02 01:51:12;;;;;;;63.40;51.40;;;;;;;;;;4986311;28;20122;-79
2022/02/02 01:56:04;;;;;;;70.20;52.70;;;;;;;;;;5013817;28;20038;-79
2022/02/02 01:58:50;;;;;;;69.38;51.80;;;;;;;;;;5013125;28;20022;-79
2022/02/02 02:01:16;;;;;;;69.78;50.25;;;;;;;;;;4998655;28;20026;-79
2022/02/02 02:03:41;;;;;;;71.00;50.27;;;;;;;;;;4996449;28;20395;-79
2022/02/02 02:06:07;;;;;;;57.50;49.13;;;;;;;;;;4989437;28;20019;-78
2022/02/02 02:08:35;;;;;;;62.42;50.15;;;;;;;;;;4986771;28;20046;-79
2022/02/02 02:11:01;;;;;;;65.28;49.33;;;;;;;;;;5011018;28;20030;-78
2022/02/02 02:16:14;;;;;;;;;;;;;;;;;;5004068;28;20018;-79
2022/02/02 02:18:39;;;;;;;64.38;51.42;;;;;;;;;;5017685;28;19917;-79
2022/02/02 02:21:10;;;;;;;56.47;50.40;;;;;;;;;;5032710;28;20090;-79
2022/02/02 02:23:36;;;;;;;55.25;49.40;;;;;;;;;;5017412;28;20029;-79
2022/02/02 02:26:01;;;;;;;59.17;49.83;;;;;;;;;;5011118;28;20051;-79
2022/02/02 02:29:02;;;;;;;61.17;50.27;;;;;;;;;;5015776;28;20049;-79
2022/02/02 02:31:24;;;;;;;58.90;48.95;;;;;;;;;;5023272;28;20018;-80
2022/02/02 02:34:12;;;;;;;;;;;;;;;;;;5015557;28;20242;-80
2022/02/02 02:39:32;;;;;;;60.28;50.40;;;;;;;;;;5001890;28;20041;-80
2022/02/02 02:55:55;;;;;;;67.28;50.72;;;;;;;;;;4992250;28;20068;-78
2022/02/02 02:58:43;;;;;;;75.85;52.20;;;;;;;;;;4991663;28;20077;-79
2022/02/02 03:32:32;;;;;;;64.13;52.28;;;;;;;;;;4990487;28;20025;-78
2022/02/02 03:58:45;;;;;;;67.07;51.35;;;;;;;;;;4993226;28;20403;-78
2022/02/02 04:01:22;;;;;;;70.78;52.47;;;;;;;;;;5003346;28;20093;-78
2022/02/02 04:04:03;;;;;;;;;;;;;;;;;;4998594;28;20046;-78
2022/02/02 04:06:29;;;;;;;66.70;50.25;;;;;;;;;;5031523;28;19906;-79
2022/02/02 04:08:54;;;;;;;65.73;51.60;;;;;;;;;;4991934;28;20190;-77
2022/02/02 04:11:48;;;;;;;55.33;49.13;;;;;;;;;;4986682;28;20026;-77
2022/02/02 04:15:27;;;;;;;61.83;49.28;;;;;;;;;;4990846;28;20032;-77
2022/02/02 04:39:10;;;;;;;65.47;50.08;;;;;;;;;;4979777;28;20097;-83
2022/02/02 04:55:06;;;;;;;55.80;49.27;;;;;;;;;;4984762;28;20015;-83
2022/02/02 05:03:37;;;;;;;60.60;49.75;;;;;;;;;;4978363;28;20097;-84
2022/02/02 05:05:57;;;;;;;55.90;49.22;;;;;;;;;;4964604;28;20031;-85
2022/02/02 05:08:48;;;;;;;61.88;50.25;;;;;;;;;;4979452;28;20059;-83
2022/02/02 05:11:42;;;;;;;71.15;51.33;;;;;;;;;;4981414;28;20023;-83
2022/02/02 05:42:43;;;;;;;57.85;50.65;;;;;;;;;;4983208;28;20157;-84
2022/02/02 05:50:43;;;;;;;62.72;49.38;;;;;;;;;;4981747;28;20038;-85
2022/02/02 05:53:08;;;;;;;54.75;48.88;;;;;;;;;;4982127;28;20027;-83
2022/02/02 05:55:37;;;;;;;61.87;49.77;;;;;;;;;;4982114;28;20140;-84
2022/02/02 05:58:04;;;;;;;71.53;51.35;;;;;;;;;;4980359;28;20510;-83
2022/02/02 06:00:29;;;;;;;62.00;50.97;;;;;;;;;;4977135;28;20513;-84
2022/02/02 06:02:57;;;;;;;57.23;49.40;;;;;;;;;;4980803;28;20027;-84
2022/02/02 06:05:23;;;;;;;58.70;49.00;;;;;;;;;;4981429;28;20031;-84
2022/02/02 06:07:56;;;;;;;55.50;48.90;;;;;;;;;;4982606;28;20023;-83
2022/02/02 06:10:25;;;;;;;55.50;48.88;;;;;;;;;;4979213;28;20033;-83
2022/02/02 06:12:52;;;;;;;59.97;49.90;;;;;;;;;;4991894;28;20027;-83
2022/02/02 06:15:30;;;;;;;60.65;49.50;;;;;;;;;;4976867;28;20030;-82
2022/02/02 06:17:55;;;;;;;61.63;50.45;;;;;;;;;;4991074;28;20010;-81
2022/02/02 06:20:21;;;;;;;55.13;49.25;;;;;;;;;;4986211;28;20019;-83
2022/02/02 06:22:58;;;;;;;66.07;50.33;;;;;;;;;;4989472;28;20031;-84
2022/02/02 06:25:28;;;;;;;58.30;49.08;;;;;;;;;;4972048;28;20031;-82
2022/02/02 06:28:06;;;;;;;68.05;50.60;;;;;;;;;;4984195;28;20024;-83
2022/02/02 06:30:34;;;;;;;55.30;48.20;;;;;;;;;;4984319;28;20026;-83
2022/02/02 06:33:13;;;;;;;54.22;48.20;;;;;;;;;;4981433;28;20061;-83
2022/02/02 06:36:00;;;;;;;56.22;49.13;;;;;;;;;;4984693;28;20026;-83
2022/02/02 06:38:26;;;;;;;64.28;50.38;;;;;;;;;;4974515;28;20062;-82
2022/02/02 06:40:52;;;;;;;;;;;;;;;;;;4986767;28;20030;-83
2022/02/02 06:43:18;;;;;;;74.57;51.00;;;;;;;;;;4986965;28;19914;-83
2022/02/02 06:45:44;;;;;;;57.63;48.58;;;;;;;;;;4987134;28;20038;-85
2022/02/02 06:48:09;;;;;;;54.83;48.90;;;;;;;;;;5000745;28;20050;-84
2022/02/02 06:50:42;;;;;;;56.47;50.13;;;;;;;;;;4984962;28;20018;-85
2022/02/02 06:53:25;;;;;;;60.92;49.60;;;;;;;;;;4985821;28;20014;-84
2022/02/02 06:59:01;;;;;;;54.53;48.78;;;;;;;;;;4983213;28;20019;-84
2022/02/02 07:04:27;;;;;;;59.50;49.80;;;;;;;;;;4989571;28;20038;-85
2022/02/02 07:10:39;;;;;;;58.63;49.13;;;;;;;;;;4976328;28;20122;-83
2022/02/02 07:20:48;;;;;;;69.10;50.20;;;;;;;;;;4991837;28;20011;-84
2022/02/02 07:23:34;;;;;;;70.82;51.38;;;;;;;;;;4981106;28;20023;-84
2022/02/02 07:33:23;;;;;;;66.73;50.50;;;;;;;;;;4987080;28;20081;-85
2022/02/02 07:36:07;;;;;;;53.65;48.00;;;;;;;;;;5006055;28;20101;-86
2022/02/02 07:38:51;;;;;;;54.40;48.45;;;;;;;;;;4988779;28;20027;-84
2022/02/02 07:41:24;;;;;;;62.05;50.63;;;;;;;;;;4983286;28;20033;-85
2022/02/02 07:43:52;;;;;;;57.92;49.40;;;;;;;;;;4977306;28;20091;-84
2022/02/02 07:46:25;;;;;;;66.50;52.83;;;;;;;;;;4975986;28;20018;-84
2022/02/02 07:48:50;;;;;;;57.50;50.10;;;;;;;;;;4985182;28;20066;-83
2022/02/02 07:51:16;;;;;;;65.40;50.83;;;;;;;;;;4989502;28;20011;-82
2022/02/02 07:53:46;;;;;;;55.45;48.83;;;;;;;;;;4990042;28;20011;-85
2022/02/02 07:56:15;;;;;;;67.75;50.38;;;;;;;;;;4993441;28;20015;-83
2022/02/02 07:58:43;;;;;;;60.22;49.40;;;;;;;;;;4992607;28;20023;-84
2022/02/02 08:01:10;;;;;;;67.13;51.53;;;;;;;;;;4991333;28;20019;-84
2022/02/02 08:03:39;;;;;;;60.15;50.45;;;;;;;;;;4993907;28;20030;-84
2022/02/02 08:06:07;;;;;;;59.00;49.63;;;;;;;;;;5007765;28;20022;-84
2022/02/02 08:08:36;;;;;;;62.30;50.85;;;;;;;;;;4984413;28;20042;-84
2022/02/02 08:11:07;;;;;;;57.13;49.33;;;;;;;;;;4979831;28;20015;-86
2022/02/02 08:13:46;;;;;;;58.92;49.83;;;;;;;;;;4979403;28;20019;-81
2022/02/02 08:16:14;;;;;;;56.83;50.03;;;;;;;;;;4986781;28;20030;-79
2022/02/02 08:18:43;;;;;;;56.75;48.78;;;;;;;;;;4995242;28;20049;-82
2022/02/02 08:21:08;;;;;;;55.22;49.25;;;;;;;;;;4980949;28;20015;-83
2022/02/02 08:23:34;;;;;;;55.67;49.60;;;;;;;;;;4982419;28;20125;-85
2022/02/02 08:26:01;;;;;;;63.72;51.58;;;;;;;;;;4988721;28;20019;-82
2022/02/02 08:28:26;;;;;;;56.05;49.90;;;;;;;;;;4984938;28;20062;-82
2022/02/02 08:30:52;;;;;;;55.13;49.10;;;;;;;;;;4977200;28;20031;-82
2022/02/02 08:33:22;;;;;;;66.67;49.30;;;;;;;;;;4984490;28;20073;-83
2022/02/02 08:35:54;;;;;;;59.75;50.25;;;;;;;;;;4990996;28;20023;-84
2022/02/02 08:40:56;;;;;;;60.80;50.47;;;;;;;;;;4974440;28;20050;-83
2022/02/02 08:43:30;;;;;;;61.67;51.38;;;;;;;;;;4984130;28;20082;-83
2022/02/02 08:46:03;;;;;;;69.57;51.03;;;;;;;;;;4986171;28;20031;-84
2022/02/02 08:48:29;;;;;;;61.33;50.17;;;;;;;;;;4982995;28;20023;-83
2022/02/02 08:50:59;;;;;;;54.85;49.00;;;;;;;;;;4985841;28;20057;-83
2022/02/02 08:56:04;;;;;;;57.25;50.00;;;;;;;;;;4989094;28;20030;-82
2022/02/02 08:58:34;;;;;;;57.55;50.70;;;;;;;;;;4983468;28;20031;-84
2022/02/02 09:01:02;;;;;;;65.80;50.33;;;;;;;;;;4985656;28;20074;-84
2022/02/02 09:06:12;;;;;;;57.33;48.95;;;;;;;;;;4966755;29;20066;-84
2022/02/02 09:08:37;;;;;;;;;;;;;;;;;;4983588;28;20018;-82
2022/02/02 09:24:50;;;;;;;66.53;52.55;;;;;;;;;;4999582;28;20033;-83
2022/02/02 09:33:03;;;;;;;80.00;52.38;;;;;;;;;;4993762;28;20079;-84
2022/02/02 09:35:28;;;;;;;64.90;49.55;;;;;;;;;;4984458;28;20095;-82
2022/02/02 09:37:54;;;;;;;61.38;51.22;;;;;;;;;;4980964;28;20057;-82
2022/02/02 09:41:23;;;;;;;59.43;50.37;;;;;;;;;;4974427;28;20042;-84
2022/02/02 09:43:13;;;;;;;56.10;50.13;;;;;;;;;;4970891;28;20178;-83
2022/02/02 09:45:38;;;;;;;58.00;50.40;;;;;;;;;;4983618;28;20026;-83
2022/02/02 09:48:14;;;;;;;69.43;52.88;;;;;;;;;;4980477;28;20015;-83
2022/02/02 09:50:47;;;;;;;59.45;50.97;;;;;;;;;;4983885;28;20027;-83
2022/02/02 09:53:20;;;;;;;57.75;50.40;;;;;;;;;;4977495;28;20478;-83
2022/02/02 10:04:46;;;;;;;56.67;50.08;;;;;;;;;;4988662;28;21888;-84
2022/02/02 10:07:37;;;;;;;63.60;50.53;;;;;;;;;;4999043;28;20031;-82
2022/02/02 10:15:24;;;;;;;54.35;48.72;;;;;;;;;;4999794;28;20023;-82
2022/02/02 10:17:59;;;;;;;62.58;51.97;;;;;;;;;;4994924;28;20030;-80
2022/02/02 10:20:26;;;;;;;58.03;50.03;;;;;;;;;;5012701;28;20033;-82
2022/02/02 10:22:52;;;;;;;60.63;50.60;;;;;;;;;;4985351;28;20023;-83
2022/02/02 10:25:17;;;;;;;;;;;;;;;;;;4980892;28;20055;-84
2022/02/02 10:27:44;;;;;;;61.20;50.38;;;;;;;;;;4984012;28;19982;-83
2022/02/02 10:30:11;;;;;;;60.90;49.50;;;;;;;;;;4981703;28;20057;-84
2022/02/02 10:32:37;;;;;;;58.33;50.72;;;;;;;;;;4981957;28;20106;-83
2022/02/02 10:35:04;;;;;;;54.58;49.15;;;;;;;;;;4991307;28;20034;-84
2022/02/02 10:37:31;;;;;;;60.17;50.45;;;;;;;;;;4989349;28;20026;-83
2022/02/02 10:39:56;;;;;;;55.47;49.63;;;;;;;;;;4984036;28;20018;-83
2022/02/02 10:42:33;;;;;;;60.97;50.38;;;;;;;;;;4979346;28;20039;-83
2022/02/02 10:45:14;;;;;;;55.28;49.50;;;;;;;;;;4987896;28;20027;-82
2022/02/02 10:47:41;;;;;;;61.78;50.67;;;;;;;;;;4986468;28;20031;-84
2022/02/02 10:50:21;;;;;;;54.78;48.80;;;;;;;;;;4984887;28;20053;-83
2022/02/02 10:53:10;;;;;;;63.78;50.40;;;;;;;;;;4969290;28;20046;-83
2022/02/02 10:58:41;;;;;;;55.90;49.67;;;;;;;;;;4978406;28;20022;-82
2022/02/02 11:06:38;;;;;;;67.13;51.00;;;;;;;;;;4983387;28;20044;-83
2022/02/02 11:09:08;;;;;;;57.92;50.17;;;;;;;;;;4974907;28;20022;-84
2022/02/02 11:11:38;;;;;;;56.17;50.10;;;;;;;;;;4983246;28;20006;-83
2022/02/02 11:14:06;;;;;;;55.80;49.92;;;;;;;;;;4983641;28;20022;-82
2022/02/02 11:16:33;;;;;;;56.38;50.35;;;;;;;;;;4982681;28;20045;-83
2022/02/02 11:19:00;;;;;;;56.60;49.85;;;;;;;;;;4977895;28;20522;-83
2022/02/02 11:21:33;;;;;;;54.78;49.28;;;;;;;;;;4987938;28;20029;-85
2022/02/02 11:23:59;;;;;;;55.40;49.50;;;;;;;;;;4985924;28;20023;-82
2022/02/02 11:26:36;;;;;;;56.72;50.05;;;;;;;;;;4983260;28;20019;-85
2022/02/02 11:29:01;;;;;;;56.22;49.67;;;;;;;;;;4979259;28;20026;-84
2022/02/02 11:31:28;;;;;;;56.53;49.53;;;;;;;;;;4982151;28;20026;-84
2022/02/02 11:33:56;;;;;;;55.33;49.45;;;;;;;;;;4981091;28;20050;-83
2022/02/02 11:36:42;;;;;;;56.10;49.58;;;;;;;;;;4981638;28;20030;-83
2022/02/02 11:39:09;;;;;;;62.40;49.67;;;;;;;;;;4977516;28;20024;-84
2022/02/02 11:42:41;;;;;;;55.83;49.78;;;;;;;;;;4981880;28;20019;-84
2022/02/02 11:44:43;;;;;;;58.67;50.38;;;;;;;;;;4959549;28;20034;-83
2022/02/02 11:50:06;;;;;;;56.47;50.17;;;;;;;;;;4975213;28;20110;-77
2022/02/02 11:52:36;;;;;;;58.50;49.88;;;;;;;;;;4976349;28;20412;-80
2022/02/02 11:55:02;;;;;;;56.80;50.00;;;;;;;;;;4975189;28;20023;-79
2022/02/02 11:57:36;;;;;;;70.72;54.25;;;;;;;;;;4972481;28;20170;-78
2022/02/02 12:00:15;;;;;;;56.00;50.28;;;;;;;;;;4973431;28;20102;-78
2022/02/02 12:05:37;;;;;;;59.95;50.90;;;;;;;;;;4976778;28;20555;-79
2022/02/02 12:10:56;;;;;;;57.17;50.88;;;;;;;;;;4977931;28;20023;-78
2022/02/02 12:57:23;;;;;;;65.53;53.47;;;;;;;;;;4983493;28;20190;-81
2022/02/02 13:02:18;;;;;;;56.60;50.43;;;;;;;;;;4981590;28;20019;-80
2022/02/02 13:04:44;;;;;;;54.33;48.97;;;;;;;;;;4982533;28;20049;-79
2022/02/02 13:07:09;;;;;;;;;;;;;;;;;;4984233;28;20200;-79
2022/02/02 13:09:35;;;;;;;59.42;50.13;;;;;;;;;;4982061;28;19910;-80
2022/02/02 13:12:21;;;;;;;56.67;50.60;;;;;;;;;;4978448;28;20015;-79
2022/02/02 13:17:39;;;;;;;67.30;52.55;;;;;;;;;;4943829;28;20041;-78
2022/02/02 13:20:09;;;;;;;58.97;49.22;;;;;;;;;;4985886;28;20152;-78
2022/02/02 13:22:37;;;;;;;57.50;51.35;;;;;;;;;;5015691;28;20034;-78
2022/02/02 13:25:03;;;;;;;56.83;49.53;;;;;;;;;;4978584;28;20113;-78
2022/02/02 13:27:33;;;;;;;68.70;54.20;;;;;;;;;;4977278;28;20021;-79
2022/02/02 13:30:00;;;;;;;55.92;49.83;;;;;;;;;;4979110;28;20026;-79
2022/02/02 13:32:45;;;;;;;58.72;50.33;;;;;;;;;;4981451;28;20019;-79
2022/02/02 13:35:23;;;;;;;55.45;49.65;;;;;;;;;;4980956;28;20023;-80
2022/02/02 13:38:17;;;;;;;60.40;51.03;;;;;;;;;;4977796;28;20018;-81
2022/02/02 13:43:50;;;;;;;61.25;50.63;;;;;;;;;;4983215;28;20065;-81
2022/02/02 13:46:27;;;;;;;57.63;49.08;;;;;;;;;;4980376;28;20409;-81
2022/02/02 13:49:33;;;;;;;62.53;52.17;;;;;;;;;;4976075;28;20023;-81
2022/02/02 13:52:27;;;;;;;56.00;50.33;;;;;;;;;;4974605;28;20015;-81
2022/02/02 13:55:08;;;;;;;55.75;50.08;;;;;;;;;;4977710;28;20027;-80
2022/02/02 13:57:59;;;;;;;58.95;52.15;;;;;;;;;;4974781;28;20027;-82
2022/02/02 14:00:35;;;;;;;59.10;51.67;;;;;;;;;;4979872;28;20046;-79
2022/02/02 14:04:09;;;;;;;55.25;49.53;;;;;;;;;;4977762;28;20622;-80
2022/02/02 14:06:16;;;;;;;55.53;49.83;;;;;;;;;;4961530;28;20038;-81
2022/02/02 14:11:43;;;;;;;55.53;49.58;;;;;;;;;;4977330;28;20066;-80
2022/02/02 14:33:23;;;;;;;54.88;49.35;;;;;;;;;;4982479;28;20070;-80
2022/02/02 14:35:49;;;;;;;55.57;49.67;;;;;;;;;;4977594;28;20027;-79
2022/02/02 14:38:16;;;;;;;55.72;50.05;;;;;;;;;;4973580;28;20102;-78
2022/02/02 14:43:28;;;;;;;59.80;50.08;;;;;;;;;;4978406;28;20089;-82
2022/02/02 14:45:57;;;;;;;56.22;50.10;;;;;;;;;;4975269;28;20118;-83
2022/02/02 14:48:28;;;;;;;55.88;50.17;;;;;;;;;;4974069;28;20035;-80
2022/02/02 14:51:17;;;;;;;56.45;50.30;;;;;;;;;;4975864;28;20019;-80
2022/02/02 15:28:49;;;;;;;53.40;48.10;;;;;;;;;;4971695;28;20018;-80
2022/02/02 15:31:14;;;;;;;54.65;48.95;;;;;;;;;;4971873;28;20023;-79
2022/02/02 15:33:41;;;;;;;55.83;49.70;;;;;;;;;;4972150;28;20508;-78
2022/02/02 15:38:40;;;;;;;53.85;48.10;;;;;;;;;;4975029;28;20037;-77
2022/02/02 15:41:13;;;;;;;54.13;48.70;;;;;;;;;;4969323;28;20023;-77
2022/02/02 16:00:14;;;;;;;54.10;48.67;;;;;;;;;;4973276;28;20061;-77
2022/02/02 16:05:25;;;;;;;55.20;49.38;;;;;;;;;;4974619;28;20113;-77
2022/02/02 16:07:50;;;;;;;53.80;48.33;;;;;;;;;;4970473;28;20023;-77
2022/02/02 16:10:25;;;;;;;53.30;48.17;;;;;;;;;;5001079;28;20017;-75
2022/02/02 16:12:50;;;;;;;57.00;50.83;;;;;;;;;;4975205;28;20030;-77
2022/02/02 16:15:21;;;;;;;55.58;49.40;;;;;;;;;;4975458;28;20058;-76
2022/02/02 16:18:30;;;;;;;59.35;49.70;;;;;;;;;;4980518;28;20026;-78
2022/02/02 16:31:58;;;;;;;58.70;50.88;;;;;;;;;;4967512;28;20037;-77
2022/02/02 16:34:46;;;;;;;55.42;49.60;;;;;;;;;;5007901;28;20030;-77
2022/02/02 16:37:14;;;;;;;59.40;51.65;;;;;;;;;;4964489;28;20417;-76
2022/02/02 16:39:51;;;;;;;54.38;49.13;;;;;;;;;;4970195;28;20014;-76
2022/02/02 16:45:00;;;;;;;53.33;48.05;;;;;;;;;;4978584;28;20515;-78
2022/02/02 16:47:25;;;;;;;54.20;48.63;;;;;;;;;;4976549;28;20035;-76
2022/02/02 16:49:50;;;;;;;66.07;48.90;;;;;;;;;;4976786;28;20034;-77
2022/02/02 16:52:24;;;;;;;54.17;48.27;;;;;;;;;;4979196;28;20011;-75
2022/02/02 16:54:50;;;;;;;54.33;48.60;;;;;;;;;;4976854;28;20528;-76
2022/02/02 16:57:45;;;;;;;66.32;50.58;;;;;;;;;;5009493;28;20023;-78
2022/02/02 17:30:13;;;;;;;57.13;49.40;;;;;;;;;;4992693;28;20082;-81
2022/02/02 17:45:47;;;;;;;66.75;50.58;;;;;;;;;;4978619;28;20038;-77
2022/02/02 17:56:45;;;;;;;53.42;47.97;;;;;;;;;;5006506;28;20066;-83
2022/02/02 18:02:54;;;;;;;53.57;48.00;;;;;;;;;;4996335;28;20042;-82
2022/02/02 18:20:28;;;;;;;54.38;48.58;;;;;;;;;;5007840;28;20033;-80
2022/02/02 18:25:49;;;;;;;55.47;48.90;;;;;;;;;;4996822;28;20031;-82
2022/02/02 18:28:25;;;;;;;57.15;50.50;;;;;;;;;;5003959;28;20045;-80
2022/02/02 18:33:28;;;;;;;58.27;49.20;;;;;;;;;;5003793;28;20028;-81
2022/02/02 18:36:25;;;;;;;55.72;48.92;;;;;;;;;;5002491;28;20036;-80
2022/02/02 18:42:45;;;;;;;58.53;48.22;;;;;;;;;;5010177;28;20033;-79
2022/02/02 18:47:44;;;;;;;54.55;48.70;;;;;;;;;;4958821;28;20016;-81
2022/02/02 18:50:24;;;;;;;55.67;49.53;;;;;;;;;;4961229;28;20031;-79
2022/02/02 18:53:41;;;;;;;54.72;48.47;;;;;;;;;;4987849;28;20026;-80
2022/02/02 18:55:58;;;;;;;54.85;48.40;;;;;;;;;;4995975;28;20022;-80
2022/02/02 18:58:35;;;;;;;;;;;;;;;;;;5002505;28;20038;-80
2022/02/02 19:31:47;;;;;;;53.15;48.13;;;;;;;;;;4986757;28;20045;-82
2022/02/02 19:37:37;;;;;;;56.45;48.25;;;;;;;;;;4963023;28;20019;-82
2022/02/02 19:40:11;;;;;;;55.75;48.33;;;;;;;;;;4955377;29;20499;-81
2022/02/02 19:54:40;;;;;;;54.13;48.38;;;;;;;;;;5003466;28;20021;-83
2022/02/02 19:56:42;;;;;;;53.47;48.20;;;;;;;;;;5002342;28;20014;-83
2022/02/02 20:02:07;;;;;;;59.83;48.90;;;;;;;;;;4997058;28;20053;-80
2022/02/02 20:04:53;;;;;;;54.20;48.58;;;;;;;;;;4993469;28;20064;-81
2022/02/02 20:10:29;;;;;;;67.75;51.85;;;;;;;;;;5006828;28;20045;-80
2022/02/02 20:12:52;;;;;;;58.97;48.97;;;;;;;;;;5005644;28;20026;-82
2022/02/02 20:15:17;;;;;;;59.80;50.00;;;;;;;;;;5002766;28;20061;-81
2022/02/02 20:17:43;;;;;;;54.33;48.70;;;;;;;;;;5008668;28;20063;-80
2022/02/02 20:20:21;;;;;;;;;;;;;;;;;;5013950;28;20025;-80
2022/02/02 20:22:49;;;;;;;61.47;49.50;;;;;;;;;;5045098;28;19910;-82
2022/02/02 20:25:16;;;;;;;55.25;48.75;;;;;;;;;;5002921;28;20528;-81
2022/02/02 20:27:41;;;;;;;57.35;49.00;;;;;;;;;;5009845;28;20078;-81
2022/02/02 20:30:08;;;;;;;59.10;49.60;;;;;;;;;;5003259;28;20058;-79
2022/02/02 20:32:34;;;;;;;61.05;49.55;;;;;;;;;;5009302;28;20014;-79
2022/02/02 20:34:59;;;;;;;56.73;48.77;;;;;;;;;;5011666;28;20053;-80
2022/02/02 20:37:24;;;;;;;60.30;48.90;;;;;;;;;;5009107;28;20029;-81
2022/02/02 20:39:55;;;;;;;57.80;49.13;;;;;;;;;;5006341;28;20263;-81
2022/02/02 20:42:30;;;;;;;55.00;49.30;;;;;;;;;;5008682;28;20014;-79
2022/02/02 20:46:00;;;;;;;58.10;49.55;;;;;;;;;;5004233;28;20046;-82
2022/02/02 21:09:19;;;;;;;58.72;48.38;;;;;;;;;;5006387;28;20022;-82
2022/02/02 21:14:15;;;;;;;53.50;47.92;;;;;;;;;;5014311;28;20010;-81
2022/02/02 21:16:43;;;;;;;54.15;48.40;;;;;;;;;;5000051;28;20015;-80
2022/02/02 21:19:10;;;;;;;53.42;47.75;;;;;;;;;;5002961;28;20050;-80
2022/02/02 21:21:49;;;;;;;52.65;47.25;;;;;;;;;;4999541;28;20030;-80
2022/02/02 21:29:23;;;;;;;57.30;48.53;;;;;;;;;;5004504;28;20030;-80
2022/02/02 21:31:48;;;;;;;54.27;48.37;;;;;;;;;;5003099;28;20011;-81
2022/02/02 21:34:14;;;;;;;52.03;46.80;;;;;;;;;;5003302;28;20050;-81
2022/02/02 21:36:39;;;;;;;62.70;49.80;;;;;;;;;;5002453;28;20022;-81
2022/02/02 21:39:07;;;;;;;54.90;48.97;;;;;;;;;;5000459;28;20490;-80
2022/02/02 21:41:35;;;;;;;67.85;50.22;;;;;;;;;;5003234;28;20011;-81
2022/02/02 21:44:01;;;;;;;66.47;49.25;;;;;;;;;;5005073;28;20378;-81
2022/02/02 21:46:27;;;;;;;62.88;51.08;;;;;;;;;;5012044;28;20018;-80
2022/02/02 21:48:53;;;;;;;58.73;50.10;;;;;;;;;;5006461;28;20022;-80
2022/02/02 21:51:31;;;;;;;69.93;50.70;;;;;;;;;;4994469;28;20026;-80
2022/02/02 21:53:56;;;;;;;63.55;50.45;;;;;;;;;;5003727;28;20025;-82
2022/02/02 21:56:22;;;;;;;62.20;49.87;;;;;;;;;;5006207;28;20038;-80
2022/02/02 21:58:48;;;;;;;61.33;50.40;;;;;;;;;;5009363;28;20018;-84
2022/02/02 22:01:13;;;;;;;71.72;51.88;;;;;;;;;;5007176;28;20283;-81
2022/02/02 22:03:39;;;;;;;54.83;48.90;;;;;;;;;;5020564;28;20029;-81
2022/02/02 22:06:04;;;;;;;62.78;51.40;;;;;;;;;;5010798;28;20041;-81
2022/02/02 22:08:29;;;;;;;56.93;49.17;;;;;;;;;;5020830;28;20066;-80
2022/02/02 22:10:54;;;;;;;64.50;48.90;;;;;;;;;;5015918;28;20018;-81
2022/02/02 22:13:22;;;;;;;60.07;49.40;;;;;;;;;;5016046;28;19998;-83
2022/02/02 22:15:55;;;;;;;57.83;50.38;;;;;;;;;;5012781;28;20010;-81
2022/02/02 22:18:24;;;;;;;64.07;52.08;;;;;;;;;;5019267;28;20014;-80
2022/02/02 22:20:50;;;;;;;61.58;49.55;;;;;;;;;;5010177;28;20081;-83
2022/02/02 22:23:17;;;;;;;62.10;49.33;;;;;;;;;;5020502;28;20022;-85
2022/02/02 22:25:42;;;;;;;68.72;50.47;;;;;;;;;;5015203;28;20029;-85
2022/02/02 22:28:07;;;;;;;60.23;49.50;;;;;;;;;;5019191;28;20026;-81
2022/02/02 22:30:32;;;;;;;63.07;50.03;;;;;;;;;;5011667;28;20075;-83
2022/02/02 22:32:57;;;;;;;54.00;48.03;;;;;;;;;;5017734;28;20560;-83
2022/02/02 22:35:23;;;;;;;59.27;47.73;;;;;;;;;;5005739;28;20057;-81
2022/02/02 22:37:48;;;;;;;64.10;50.90;;;;;;;;;;5056910;28;20397;-82
2022/02/02 22:40:23;;;;;;;61.38;49.22;;;;;;;;;;5012948;28;20026;-83
2022/02/02 22:42:48;;;;;;;75.57;50.60;;;;;;;;;;5007852;28;20028;-82
2022/02/02 22:45:14;;;;;;;58.53;48.33;;;;;;;;;;5007176;28;20034;-82
2022/02/02 22:47:43;;;;;;;53.88;47.58;;;;;;;;;;5008823;28;20026;-82
2022/02/02 22:50:08;;;;;;;55.03;49.13;;;;;;;;;;5006010;28;20053;-82
2022/02/02 22:52:34;;;;;;;60.27;48.67;;;;;;;;;;5005308;28;20030;-83
2022/02/02 22:55:00;;;;;;;54.53;47.70;;;;;;;;;;5007743;28;20022;-82
2022/02/02 22:57:25;;;;;;;55.03;48.13;;;;;;;;;;5008617;28;20042;-83
2022/02/02 22:59:51;;;;;;;59.50;49.97;;;;;;;;;;5008502;28;20022;-82
2022/02/02 23:02:47;;;;;;;54.63;47.95;;;;;;;;;;5006099;28;20037;-83
2022/02/02 23:05:13;;;;;;;53.20;47.80;;;;;;;;;;5019550;28;20125;-84
2022/02/02 23:07:38;;;;;;;53.97;48.10;;;;;;;;;;5010948;28;20022;-83
2022/02/02 23:10:04;;;;;;;68.30;49.30;;;;;;;;;;5015003;28;20022;-81
2022/02/02 23:12:30;;;;;;;51.97;46.97;;;;;;;;;;5035240;28;20007;-82
2022/02/02 23:15:02;;;;;;;60.30;48.87;;;;;;;;;;5017559;28;20049;-82
2022/02/02 23:17:28;;;;;;;56.60;48.83;;;;;;;;;;5001370;28;20015;-81
2022/02/02 23:19:53;;;;;;;52.42;47.30;;;;;;;;;;5017629;28;20034;-81
2022/02/02 23:22:23;;;;;;;68.53;51.00;;;;;;;;;;5010462;28;20014;-81
2022/02/02 23:24:51;;;;;;;57.47;48.28;;;;;;;;;;5010568;28;20023;-81
2022/02/02 23:27:20;;;;;;;53.83;47.08;;;;;;;;;;5012888;28;20015;-83
2022/02/02 23:29:52;;;;;;;60.65;50.90;;;;;;;;;;5013199;28;20019;-82
2022/02/02 23:32:21;;;;;;;54.13;48.10;;;;;;;;;;5008184;28;20027;-81
2022/02/02 23:34:46;;;;;;;54.28;48.28;;;;;;;;;;5019874;28;19998;-83
2022/02/02 23:37:12;;;;;;;54.07;48.57;;;;;;;;;;5013558;28;20032;-82
2022/02/02 23:39:38;;;;;;;58.63;48.17;;;;;;;;;;5011745;28;20007;-81
2022/02/02 23:42:19;;;;;;;53.72;48.05;;;;;;;;;;5004198;28;20030;-82
2022/02/02 23:44:46;;;;;;;62.92;49.83;;;;;;;;;;5004284;28;20030;-80
2022/02/02 23:47:13;;;;;;;55.30;49.33;;;;;;;;;;5014635;28;20018;-82
2022/02/02 23:49:45;;;;;;;65.13;50.55;;;;;;;;;;4999269;28;20050;-80
2022/02/02 23:54:42;;;;;;;64.00;49.63;;;;;;;;;;4969475;28;20070;-79
2022/02/02 23:57:29;;;;;;;54.35;48.67;;;;;;;;;;4968955;28;20461;-80
